Time;durP1;ratioP1;P1;durP2;ratioP2;P2;SDS_P1;SDS_P2;PMS_P1;PMS_P2;Temp;Humidity;BMP_temperature;BMP_pressure;BME280_temperature;BME280_humidity;BME280_pressure;Samples;Min_cycle;Max_cycle;Signal;HPM_P1;HPM_P2
2022/04/30 00:02:17;;;;;;;13.55;8.52;;;7.90;99.90;;;;;;5053479;28;20104;-71
2022/04/30 00:04:47;;;;;;;14.88;8.25;;;7.90;99.90;;;;;;5069027;28;20060;-71
2022/04/30 00:07:16;;;;;;;16.42;8.80;;;7.90;99.90;;;;;;5053651;28;20435;-71
2022/04/30 00:09:42;;;;;;;19.58;10.02;;;7.90;99.90;;;;;;5053314;28;20032;-70
2022/04/30 00:12:09;;;;;;;14.75;9.20;;;7.90;99.90;;;;;;5053446;28;20025;-71
2022/04/30 00:14:35;;;;;;;15.40;9.75;;;7.80;99.90;;;;;;5053253;28;20017;-70
2022/04/30 00:17:01;;;;;;;18.90;8.35;;;7.90;99.90;;;;;;5068759;28;20035;-71
2022/04/30 00:19:28;;;;;;;20.58;9.32;;;7.90;99.90;;;;;;5053313;28;20067;-70
2022/04/30 00:21:54;;;;;;;18.42;9.30;;;7.90;99.90;;;;;;5053206;28;20013;-70
2022/04/30 00:24:19;;;;;;;15.48;9.52;;;7.90;99.90;;;;;;5053272;28;20096;-70
2022/04/30 00:26:45;;;;;;;17.27;9.43;;;7.80;99.90;;;;;;5068729;28;20032;-70
2022/04/30 00:29:10;;;;;;;19.90;9.75;;;7.80;99.90;;;;;;5053266;28;20025;-70
2022/04/30 00:31:37;;;;;;;16.25;9.85;;;7.80;99.90;;;;;;5052935;28;20028;-70
2022/04/30 00:34:03;;;;;;;16.15;9.02;;;7.70;99.90;;;;;;5053340;28;20474;-70
2022/04/30 00:36:28;;;;;;;15.90;9.57;;;7.70;99.90;;;;;;5052890;28;20045;-70
2022/04/30 00:38:54;;;;;;;18.02;10.00;;;7.70;99.90;;;;;;5053414;28;20032;-70
2022/04/30 00:41:21;;;;;;;15.38;10.07;;;7.70;99.90;;;;;;5068529;28;20497;-70
2022/04/30 00:43:49;;;;;;;21.92;10.10;;;7.70;99.90;;;;;;5068425;28;20021;-70
2022/04/30 00:46:15;;;;;;;15.05;9.93;;;7.70;99.90;;;;;;5068573;28;20075;-70
2022/04/30 00:48:42;;;;;;;19.77;10.25;;;7.70;99.90;;;;;;5068444;28;20025;-70
2022/04/30 00:51:10;;;;;;;18.17;10.48;;;7.80;99.90;;;;;;5052960;28;20418;-70
2022/04/30 00:53:38;;;;;;;13.68;9.52;;;7.70;99.90;;;;;;5052933;28;20029;-70
2022/04/30 00:56:08;;;;;;;18.63;9.23;;;7.70;99.90;;;;;;5052768;28;20060;-70
2022/04/30 00:58:35;;;;;;;19.35;10.18;;;7.70;99.90;;;;;;5052860;28;20032;-70
2022/04/30 01:01:02;;;;;;;14.93;9.70;;;7.70;99.90;;;;;;5053136;28;20506;-70
2022/04/30 01:03:28;;;;;;;14.40;9.18;;;7.60;99.90;;;;;;5053082;28;20104;-71
2022/04/30 01:05:54;;;;;;;16.33;10.25;;;7.60;99.90;;;;;;5052814;28;20549;-70
2022/04/30 01:08:20;;;;;;;16.85;9.95;;;7.50;99.90;;;;;;5052838;28;20024;-71
2022/04/30 01:10:46;;;;;;;17.15;9.27;;;7.50;99.90;;;;;;5052860;28;20405;-70
2022/04/30 01:13:13;;;;;;;18.75;10.23;;;7.40;99.90;;;;;;5052729;28;20100;-70
2022/04/30 01:15:39;;;;;;;14.70;10.35;;;7.40;99.90;;;;;;5052719;28;20144;-71
2022/04/30 01:18:07;;;;;;;20.52;10.60;;;7.30;99.90;;;;;;5052978;28;20098;-71
2022/04/30 01:20:35;;;;;;;18.30;10.18;;;7.30;99.90;;;;;;5052956;28;20135;-71
2022/04/30 01:23:02;;;;;;;17.67;10.32;;;7.30;99.90;;;;;;5052679;28;20021;-71
2022/04/30 01:25:30;;;;;;;16.08;10.38;;;7.30;99.90;;;;;;5052648;28;20021;-71
2022/04/30 01:27:59;;;;;;;20.40;10.63;;;7.20;99.90;;;;;;5052626;28;20395;-71
2022/04/30 01:30:25;;;;;;;21.88;11.77;;;7.20;99.90;;;;;;5052837;28;20035;-70
2022/04/30 01:38:22;;;;;;;21.52;11.60;;;7.20;99.90;;;;;;5065173;28;20032;-71
2022/04/30 01:40:48;;;;;;;19.25;10.80;;;7.10;99.90;;;;;;5052761;28;20459;-70
2022/04/30 01:43:16;;;;;;;23.10;11.55;;;7.10;99.90;;;;;;5054234;28;20075;-71
2022/04/30 01:45:44;;;;;;;21.92;11.35;;;7.10;99.90;;;;;;5056237;28;20021;-71
2022/04/30 01:48:14;;;;;;;18.52;11.52;;;7.10;99.90;;;;;;5056307;28;20560;-71
2022/04/30 01:50:41;;;;;;;18.92;11.25;;;7.10;99.90;;;;;;5056154;28;20021;-71
2022/04/30 01:53:07;;;;;;;18.88;11.13;;;7.00;99.90;;;;;;5056009;28;20517;-70
2022/04/30 01:55:32;;;;;;;19.42;10.75;;;6.90;99.90;;;;;;5055939;28;20482;-71
2022/04/30 01:57:58;;;;;;;21.30;11.40;;;6.90;99.90;;;;;;5055918;28;20025;-71
2022/04/30 02:00:25;;;;;;;20.52;10.82;;;6.80;99.90;;;;;;5055914;28;20053;-71
2022/04/30 02:02:54;;;;;;;21.98;11.43;;;6.80;99.90;;;;;;5056027;28;20108;-71
2022/04/30 02:05:20;;;;;;;18.20;11.43;;;6.60;99.90;;;;;;5056003;28;20033;-71
2022/04/30 02:07:52;;;;;;;17.45;11.38;;;6.60;99.90;;;;;;5055665;28;20086;-71
2022/04/30 02:10:18;;;;;;;18.90;11.32;;;6.50;99.90;;;;;;5071056;28;20474;-71
2022/04/30 02:12:45;;;;;;;21.00;11.38;;;6.40;99.90;;;;;;5055687;28;20025;-71
2022/04/30 02:15:14;;;;;;;20.45;11.05;;;6.40;99.90;;;;;;5055742;28;20463;-71
2022/04/30 02:17:41;;;;;;;19.40;12.07;;;6.30;99.90;;;;;;5055596;28;20017;-71
2022/04/30 02:20:42;;;;;;;17.75;10.75;;;6.30;99.90;;;;;;5055486;28;20028;-71
2022/04/30 02:22:56;;;;;;;21.25;11.60;;;6.20;99.90;;;;;;5055368;28;20494;-70
2022/04/30 02:25:22;;;;;;;18.23;10.60;;;6.20;99.90;;;;;;5055373;28;20535;-70
2022/04/30 02:27:51;;;;;;;17.00;10.73;;;6.20;99.90;;;;;;5055593;28;20025;-70
2022/04/30 02:30:18;;;;;;;19.17;11.25;;;6.10;99.90;;;;;;5055396;28;20423;-70
2022/04/30 02:32:46;;;;;;;18.27;10.55;;;6.10;99.90;;;;;;5055255;28;20108;-70
2022/04/30 02:35:15;;;;;;;20.45;11.13;;;6.00;99.90;;;;;;5055012;28;20509;-70
2022/04/30 02:37:44;;;;;;;17.58;10.27;;;5.90;99.90;;;;;;5070365;28;20017;-70
2022/04/30 02:40:12;;;;;;;17.58;10.90;;;5.90;99.90;;;;;;5055168;28;20103;-70
2022/04/30 02:42:38;;;;;;;16.45;10.68;;;5.80;99.90;;;;;;5070505;28;20044;-70
2022/04/30 02:45:05;;;;;;;19.38;11.02;;;6.00;99.90;;;;;;5055024;28;20475;-70
2022/04/30 02:47:30;;;;;;;19.38;11.20;;;5.90;99.90;;;;;;5070233;28;20021;-70
2022/04/30 02:49:56;;;;;;;18.95;11.32;;;5.80;99.90;;;;;;5054938;28;20035;-70
2022/04/30 02:52:22;;;;;;;18.98;11.23;;;5.80;99.90;;;;;;5054901;28;20051;-70
2022/04/30 02:54:47;;;;;;;20.77;11.80;;;5.80;99.90;;;;;;5054792;28;20021;-70
2022/04/30 02:57:14;;;;;;;17.63;11.77;;;;;;;;;;5054905;28;20040;-70
2022/04/30 02:59:55;;;;;;;22.13;11.70;;;;;;;;;;5054812;28;20107;-70
2022/04/30 03:02:21;;;;;;;21.25;11.80;;;;;;;;;;5070115;28;20021;-70
2022/04/30 03:04:51;;;;;;;22.20;12.35;;;;;;;;;;5054700;28;20386;-70
2022/04/30 03:07:18;;;;;;;20.55;11.70;;;;;;;;;;5054667;28;20013;-70
2022/04/30 03:09:43;;;;;;;23.40;10.30;;;;;;;;;;5054649;28;20021;-70
2022/04/30 03:12:10;;;;;;;22.63;12.13;;;;;;;;;;5054457;28;20051;-70
2022/04/30 03:14:36;;;;;;;17.70;12.20;;;;;;;;;;5054686;28;20017;-70
2022/04/30 03:22:34;;;;;;;19.83;10.65;;;;;;;;;;5054193;28;20029;-70
2022/04/30 03:25:00;;;;;;;23.08;11.52;;;;;;;;;;5054184;28;20103;-70
2022/04/30 03:27:26;;;;;;;20.63;11.30;;;;;;;;;;5054205;28;20110;-70
2022/04/30 03:29:52;;;;;;;20.38;11.20;;;;;;;;;;5054109;28;20461;-70
2022/04/30 03:32:20;;;;;;;19.83;11.25;;;;;;;;;;5054151;28;20025;-70
2022/04/30 03:34:46;;;;;;;18.55;10.52;;;;;;;;;;5053810;28;20124;-70
2022/04/30 03:37:13;;;;;;;21.90;11.35;;;;;;;;;;5054049;28;20453;-70
2022/04/30 03:39:39;;;;;;;16.15;10.50;;;;;;;;;;5053959;28;20020;-70
2022/04/30 03:42:05;;;;;;;22.10;11.70;;;;;;;;;;5053947;28;20466;-70
2022/04/30 03:44:32;;;;;;;20.55;11.13;;;;;;;;;;5053878;28;20017;-70
2022/04/30 03:46:58;;;;;;;21.02;11.98;;;;;;;;;;5054144;28;20380;-70
2022/04/30 03:49:23;;;;;;;20.73;11.25;;;;;;;;;;5053845;28;20036;-70
2022/04/30 03:51:49;;;;;;;23.60;11.77;;;;;;;;;;5053769;28;20040;-69
2022/04/30 03:54:15;;;;;;;22.98;11.20;;;;;;;;;;5053762;28;20033;-70
2022/04/30 03:56:41;;;;;;;20.42;10.85;;;;;;;;;;5053692;28;20029;-70
2022/04/30 03:59:08;;;;;;;18.23;10.73;;;;;;;;;;5053638;28;20017;-69
2022/04/30 04:01:35;;;;;;;22.40;11.48;;;;;;;;;;5053606;28;20474;-70
2022/04/30 04:04:01;;;;;;;23.02;11.15;;;;;;;;;;5053553;28;20542;-69
2022/04/30 04:06:27;;;;;;;23.48;11.30;;;;;;;;;;5053158;28;20064;-70
2022/04/30 04:08:53;;;;;;;16.33;10.23;;;;;;;;;;5053527;28;20021;-70
2022/04/30 04:11:20;;;;;;;25.42;11.15;;;;;;;;;;5053435;28;20103;-69
2022/04/30 04:19:20;;;;;;;17.30;10.80;;;;;;;;;;5053206;28;20087;-69
2022/04/30 04:21:46;;;;;;;19.65;10.70;;;;;;;;;;5053357;28;20021;-70
2022/04/30 04:26:57;;;;;;;20.33;11.00;;;;;;;;;;5053084;28;20032;-70
2022/04/30 04:29:23;;;;;;;20.98;11.88;;;;;;;;;;5053247;28;20103;-70
2022/04/30 04:31:49;;;;;;;28.60;11.32;;;;;;;;;;5053226;28;20029;-69
2022/04/30 04:34:15;;;;;;;20.58;12.05;;;;;;;;;;5053048;28;20021;-70
2022/04/30 04:36:42;;;;;;;21.25;11.85;;;;;;;;;;5053112;28;20094;-70
2022/04/30 04:39:11;;;;;;;22.92;11.38;;;;;;;;;;5053014;28;20063;-70
2022/04/30 04:41:37;;;;;;;21.73;12.02;;;;;;;;;;5068498;28;20554;-70
2022/04/30 04:44:03;;;;;;;25.40;12.00;;;;;;;;;;5068492;28;20092;-69
2022/04/30 04:46:29;;;;;;;19.50;11.27;;;;;;;;;;5053069;28;20041;-69
2022/04/30 04:48:55;;;;;;;18.58;10.93;;;;;;;;;;5053012;28;20037;-70
2022/04/30 04:51:21;;;;;;;22.67;11.73;;;;;;;;;;5068491;28;20123;-70
2022/04/30 04:53:47;;;;;;;23.20;11.30;;;;;;;;;;5052998;28;20163;-69
2022/04/30 04:56:13;;;;;;;21.27;10.70;;;;;;;;;;5052928;28;20075;-70
2022/04/30 04:58:40;;;;;;;22.48;11.52;;;;;;;;;;5052899;28;20044;-70
2022/04/30 05:01:06;;;;;;;22.52;11.77;;;;;;;;;;5052922;28;20021;-70
2022/04/30 05:03:32;;;;;;;20.42;11.30;;;;;;;;;;5068291;28;20127;-70
2022/04/30 05:05:58;;;;;;;24.23;11.63;;;;;;;;;;5052747;28;20044;-70
2022/04/30 05:08:24;;;;;;;17.23;10.05;;;;;;;;;;5068225;28;20024;-70
2022/04/30 05:10:50;;;;;;;25.52;11.07;;;;;;;;;;5052798;28;20062;-70
2022/04/30 05:13:16;;;;;;;23.27;10.95;;;;;;;;;;5068199;28;20065;-70
2022/04/30 05:15:43;;;;;;;20.20;11.30;;;;;;;;;;5052748;28;20029;-70
2022/04/30 05:18:09;;;;;;;25.13;10.07;;;;;;;;;;5054440;28;20041;-70
2022/04/30 05:20:35;;;;;;;21.20;11.32;;;;;;;;;;5056560;28;20072;-70
2022/04/30 05:23:01;;;;;;;19.10;10.57;;;;;;;;;;5056563;28;20025;-70
2022/04/30 05:25:27;;;;;;;23.05;11.00;;;;;;;;;;5056766;28;20044;-70
2022/04/30 05:27:53;;;;;;;22.65;10.63;;;;;;;;;;5056484;28;20036;-70
2022/04/30 05:30:19;;;;;;;20.15;10.45;;;;;;;;;;5056476;28;20037;-70
2022/04/30 05:32:45;;;;;;;14.95;9.43;;;;;;;;;;5056440;28;20119;-70
2022/04/30 05:35:11;;;;;;;19.80;10.00;;;;;;;;;;5056205;28;20409;-70
2022/04/30 05:37:37;;;;;;;23.00;10.07;;;;;;;;;;5056327;28;20112;-70
2022/04/30 05:40:02;;;;;;;13.13;8.32;;;7.30;99.90;;;;;;5056247;28;20064;-71
2022/04/30 05:42:28;;;;;;;16.50;8.00;;;7.70;99.90;;;;;;5054908;28;20421;-71
2022/04/30 05:44:53;;;;;;;16.80;8.27;;;8.60;99.90;;;;;;5056204;28;20027;-71
2022/04/30 05:47:19;;;;;;;12.07;7.13;;;10.60;99.90;;;;;;5056160;28;20387;-72
2022/04/30 05:49:45;;;;;;;9.48;6.47;;;11.20;99.90;;;;;;5071633;28;20104;-72
2022/04/30 05:52:11;;;;;;;12.15;6.88;;;12.20;99.90;;;;;;5071398;28;20470;-72
2022/04/30 05:54:37;;;;;;;9.73;6.78;;;13.20;99.90;;;;;;5055945;28;20478;-72
2022/04/30 05:57:03;;;;;;;9.45;5.85;;;12.70;99.90;;;;;;5055868;28;20060;-72
2022/04/30 05:59:29;;;;;;;10.00;6.20;;;13.50;99.90;;;;;;5071277;28;20267;-72
2022/04/30 06:01:54;;;;;;;9.85;6.15;;;14.00;99.90;;;;;;5055874;28;20022;-72
2022/04/30 06:04:21;;;;;;;11.68;6.10;;;14.50;99.90;;;;;;5071283;28;20028;-69
2022/04/30 06:06:46;;;;;;;10.63;6.45;;;14.60;99.90;;;;;;5056013;28;20029;-72
2022/04/30 06:09:12;;;;;;;9.13;6.32;;;14.90;99.90;;;;;;5055741;28;20021;-72
2022/04/30 06:11:38;;;;;;;10.60;5.43;;;14.40;99.90;;;;;;5037865;28;20120;-72
2022/04/30 06:14:04;;;;;;;10.63;5.68;;;14.70;99.90;;;;;;5055843;28;20398;-72
2022/04/30 06:16:30;;;;;;;10.88;5.97;;;14.00;99.90;;;;;;5055517;28;20029;-72
2022/04/30 06:18:55;;;;;;;11.43;6.63;;;15.00;99.90;;;;;;5055542;28;20021;-72
2022/04/30 06:21:22;;;;;;;6.68;5.90;;;15.20;99.90;;;;;;5055728;28;20382;-72
2022/04/30 06:23:47;;;;;;;9.75;6.40;;;14.70;99.90;;;;;;5055484;28;20014;-72
2022/04/30 06:26:13;;;;;;;10.52;5.82;;;14.80;99.90;;;;;;5055400;28;20051;-72
2022/04/30 06:28:39;;;;;;;10.32;6.20;;;15.40;99.90;;;;;;5055000;28;20028;-72
2022/04/30 06:31:04;;;;;;;11.50;6.88;;;15.50;99.90;;;;;;5070738;28;20025;-72
2022/04/30 06:33:30;;;;;;;13.15;6.55;;;15.60;99.90;;;;;;5055267;28;20432;-72
2022/04/30 06:35:56;;;;;;;11.55;6.55;;;14.60;99.90;;;;;;5054947;28;20128;-72
2022/04/30 06:38:21;;;;;;;9.23;6.60;;;13.40;99.90;;;;;;5055380;28;20075;-72
2022/04/30 06:40:48;;;;;;;12.00;7.22;;;13.20;99.90;;;;;;5055179;28;20025;-72
2022/04/30 06:43:13;;;;;;;10.05;6.90;;;12.80;99.90;;;;;;5055154;28;20028;-72
2022/04/30 06:45:39;;;;;;;10.98;6.95;;;13.20;99.90;;;;;;5054938;28;20029;-72
2022/04/30 06:48:05;;;;;;;12.73;7.45;;;13.30;99.90;;;;;;5055183;28;20029;-72
2022/04/30 06:50:30;;;;;;;12.73;7.28;;;13.40;99.90;;;;;;5054920;28;20368;-72
2022/04/30 06:58:40;;;;;;;18.63;8.23;;;13.30;99.90;;;;;;5054666;28;20017;-71
2022/04/30 07:03:35;;;;;;;14.40;8.68;;;12.00;99.90;;;;;;5054576;28;20486;-72
2022/04/30 07:06:03;;;;;;;12.45;8.30;;;11.80;99.90;;;;;;5054920;28;20051;-72
2022/04/30 07:08:31;;;;;;;12.35;8.35;;;11.60;99.90;;;;;;5054796;28;20063;-72
2022/04/30 07:10:57;;;;;;;11.95;7.57;;;12.20;99.90;;;;;;5054547;28;20021;-72
2022/04/30 07:13:23;;;;;;;16.23;8.05;;;13.00;99.90;;;;;;5054522;28;20029;-71
2022/04/30 07:15:48;;;;;;;13.45;7.90;;;12.30;99.90;;;;;;5054454;28;20036;-71
2022/04/30 07:18:14;;;;;;;18.25;8.57;;;12.00;99.90;;;;;;5054446;28;20025;-72
2022/04/30 07:20:40;;;;;;;13.85;8.75;;;12.20;99.90;;;;;;5054310;28;20125;-72
2022/04/30 07:23:05;;;;;;;14.88;9.07;;;11.50;99.90;;;;;;5054498;28;20025;-72
2022/04/30 07:25:31;;;;;;;14.68;8.65;;;11.10;99.90;;;;;;5069649;28;20107;-71
2022/04/30 07:27:56;;;;;;;16.67;9.02;;;10.40;99.90;;;;;;5069529;28;20025;-72
2022/04/30 07:30:22;;;;;;;16.50;9.05;;;10.30;99.90;;;;;;5069614;28;20105;-71
2022/04/30 07:32:47;;;;;;;14.52;8.75;;;10.40;99.90;;;;;;5069578;28;20025;-72
2022/04/30 07:35:12;;;;;;;14.80;8.48;;;10.80;99.90;;;;;;5069173;28;20075;-72
2022/04/30 07:37:38;;;;;;;12.82;9.40;;;11.00;99.90;;;;;;5053996;28;20021;-72
2022/04/30 07:40:04;;;;;;;14.63;8.80;;;10.80;99.90;;;;;;5051973;28;20090;-72
2022/04/30 07:42:30;;;;;;;16.85;8.38;;;10.80;99.90;;;;;;5069275;28;20112;-72
2022/04/30 07:44:59;;;;;;;10.95;7.03;;;12.10;99.90;;;;;;5054153;28;20096;-72
2022/04/30 07:47:25;;;;;;;11.55;7.38;;;12.20;99.90;;;;;;5053836;28;20528;-72
2022/04/30 07:49:51;;;;;;;15.13;8.25;;;11.80;99.90;;;;;;5069082;28;20509;-72
2022/04/30 07:52:17;;;;;;;15.60;8.07;;;11.80;99.90;;;;;;5053779;28;20021;-72
2022/04/30 07:54:43;;;;;;;11.50;7.43;;;11.50;99.90;;;;;;5053705;28;20025;-72
2022/04/30 07:57:09;;;;;;;18.75;7.95;;;11.10;99.90;;;;;;5053610;28;20021;-72
2022/04/30 07:59:34;;;;;;;10.38;5.65;;;10.60;99.90;;;;;;5053842;28;20508;-72
2022/04/30 08:02:00;;;;;;;9.27;5.88;;;12.50;99.90;;;;;;5053874;28;20021;-72
2022/04/30 08:04:25;;;;;;;9.60;5.40;;;14.60;99.90;;;;;;5068872;28;20021;-73
2022/04/30 08:06:51;;;;;;;10.98;5.85;;;16.10;99.90;;;;;;5053581;28;20025;-72
2022/04/30 08:09:16;;;;;;;9.52;5.57;;;17.20;97.60;;;;;;5053555;28;20025;-73
2022/04/30 08:11:42;;;;;;;11.80;6.28;;;16.00;96.90;;;;;;5053391;28;20482;-73
2022/04/30 08:14:08;;;;;;;6.90;5.82;;;15.70;98.40;;;;;;5053432;28;20025;-73
2022/04/30 08:16:33;;;;;;;9.93;5.85;;;15.50;98.70;;;;;;5053273;28;20394;-73
2022/04/30 08:18:59;;;;;;;10.57;6.28;;;15.50;98.30;;;;;;5068814;28;20437;-73
2022/04/30 08:21:25;;;;;;;8.00;5.07;;;15.10;99.90;;;;;;5053272;28;20017;-72
2022/04/30 08:23:50;;;;;;;6.93;5.38;;;16.30;97.80;;;;;;5053302;28;20029;-73
2022/04/30 08:26:17;;;;;;;8.10;5.30;;;18.10;94.70;;;;;;5068622;28;20091;-74
2022/04/30 08:28:42;;;;;;;10.43;5.18;;;19.40;87.50;;;;;;5053507;28;20032;-73
2022/04/30 08:31:08;;;;;;;8.75;5.45;;;19.40;83.30;;;;;;5053343;28;20386;-73
2022/04/30 08:33:33;;;;;;;7.35;4.80;;;17.60;85.80;;;;;;5053088;28;20036;-73
2022/04/30 08:35:59;;;;;;;7.18;4.88;;;19.40;84.50;;;;;;5052852;28;20056;-73
2022/04/30 08:38:24;;;;;;;7.63;5.40;;;19.30;77.40;;;;;;5053129;28;20391;-73
2022/04/30 08:40:50;;;;;;;11.63;5.30;;;17.00;84.40;;;;;;5051755;28;20475;-73
2022/04/30 08:43:16;;;;;;;6.63;3.97;;;16.70;89.80;;;;;;5053170;28;20025;-73
2022/04/30 08:45:45;;;;;;;6.88;3.90;;;16.20;88.20;;;;;;5052989;28;20434;-73
2022/04/30 08:48:12;;;;;;;7.10;4.72;;;16.90;87.20;;;;;;5052954;28;20025;-73
2022/04/30 08:50:39;;;;;;;5.90;4.28;;;17.90;84.40;;;;;;5052928;28;20032;-73
2022/04/30 08:53:05;;;;;;;7.35;3.95;;;17.90;83.10;;;;;;5056409;28;20028;-73
2022/04/30 08:55:32;;;;;;;6.97;4.53;;;16.80;84.90;;;;;;5072354;28;20387;-73
2022/04/30 08:57:57;;;;;;;6.45;4.85;;;15.60;88.70;;;;;;5057277;28;20021;-72
2022/04/30 09:00:23;;;;;;;8.30;4.18;;;14.80;90.90;;;;;;5072460;28;20438;-72
2022/04/30 09:02:51;;;;;;;8.00;4.75;;;14.30;92.20;;;;;;5072360;28;20466;-72
2022/04/30 09:05:17;;;;;;;10.43;5.38;;;13.10;94.60;;;;;;5072247;28;20033;-72
2022/04/30 09:07:53;;;;;;;9.00;4.40;;;12.50;98.40;;;;;;5056729;28;20479;-73
2022/04/30 09:10:29;;;;;;;8.63;4.65;;;12.50;99.90;;;;;;5057077;28;20035;-72
2022/04/30 09:13:12;;;;;;;6.78;4.25;;;13.20;99.90;;;;;;5056769;28;20479;-72
2022/04/30 09:15:39;;;;;;;7.43;4.10;;;13.60;97.40;;;;;;5056642;28;20029;-73
2022/04/30 09:18:07;;;;;;;8.38;4.38;;;15.00;94.80;;;;;;5056701;28;20624;-73
2022/04/30 09:20:54;;;;;;;8.15;4.53;;;15.70;92.30;;;;;;5056825;28;20021;-73
2022/04/30 09:23:30;;;;;;;6.38;4.75;;;15.90;92.20;;;;;;5056688;28;20080;-73
2022/04/30 09:25:57;;;;;;;5.90;4.38;;;16.00;91.40;;;;;;5056684;28;20158;-73
2022/04/30 09:28:27;;;;;;;6.38;4.20;;;16.80;88.60;;;;;;5056710;28;20033;-73
2022/04/30 09:31:11;;;;;;;6.25;4.03;;;17.90;85.40;;;;;;5056348;28;20021;-73
2022/04/30 09:33:39;;;;;;;8.55;4.90;;;18.40;82.90;;;;;;5055077;28;20033;-74
2022/04/30 09:38:53;;;;;;;6.53;4.43;;;18.10;83.20;;;;;;5068681;28;20029;-73
2022/04/30 09:41:22;;;;;;;9.00;5.40;;;17.10;85.20;;;;;;5056371;28;20029;-73
2022/04/30 09:43:58;;;;;;;8.27;4.93;;;16.90;87.60;;;;;;5056080;28;20045;-73
2022/04/30 09:46:23;;;;;;;6.57;4.13;;;15.50;89.90;;;;;;5056224;28;20072;-73
2022/04/30 09:54:22;;;;;;;11.23;5.45;;;16.80;83.70;;;;;;5055813;28;20032;-73
2022/04/30 09:56:49;;;;;;;9.32;4.50;;;16.60;86.00;;;;;;5071258;28;20033;-73
2022/04/30 09:59:15;;;;;;;8.63;5.18;;;16.10;87.60;;;;;;5054445;28;20474;-73
2022/04/30 10:01:43;;;;;;;9.35;5.07;;;15.00;90.30;;;;;;5054442;28;20025;-73
2022/04/30 10:04:10;;;;;;;10.88;5.32;;;14.70;92.80;;;;;;5054951;28;20467;-73
2022/04/30 10:06:41;;;;;;;9.25;5.43;;;14.90;93.60;;;;;;5055675;28;20082;-72
2022/04/30 10:09:09;;;;;;;8.80;5.43;;;14.60;94.00;;;;;;5055657;28;20083;-72
2022/04/30 10:11:47;;;;;;;9.95;5.32;;;14.30;93.60;;;;;;5055603;28;20017;-72
2022/04/30 10:17:31;;;;;;;7.55;4.95;;;13.80;96.10;;;;;;5110969;27;20380;-72
2022/04/30 10:20:07;;;;;;;8.93;4.88;;;14.40;94.60;;;;;;5110875;28;20505;-72
2022/04/30 10:22:33;;;;;;;8.10;4.32;;;15.80;90.80;;;;;;5109880;28;20020;-73
2022/04/30 10:25:00;;;;;;;6.93;3.92;;;17.20;87.50;;;;;;5110937;28;20028;-73
2022/04/30 10:27:38;;;;;;;7.25;4.05;;;17.90;79.60;;;;;;5092549;28;20024;-73
2022/04/30 10:30:07;;;;;;;6.43;4.35;;;19.10;75.90;;;;;;5110816;28;20390;-73
2022/04/30 10:32:35;;;;;;;10.00;4.80;;;19.00;72.40;;;;;;5109297;28;20020;-73
2022/04/30 10:35:03;;;;;;;7.43;4.63;;;16.90;77.60;;;;;;5110510;28;20028;-73
2022/04/30 10:37:32;;;;;;;5.93;4.53;;;17.30;78.60;;;;;;5110424;28;20508;-72
2022/04/30 10:39:59;;;;;;;5.65;4.53;;;17.20;78.90;;;;;;5110282;28;20050;-72
2022/04/30 10:42:30;;;;;;;7.32;4.65;;;17.70;78.00;;;;;;5110232;28;20099;-73
2022/04/30 10:44:56;;;;;;;5.95;4.32;;;18.50;74.80;;;;;;5109188;28;20020;-73
2022/04/30 10:47:21;;;;;;;5.82;4.18;;;17.80;75.80;;;;;;5110290;28;20024;-72
2022/04/30 10:49:47;;;;;;;7.22;4.75;;;18.20;77.50;;;;;;5110391;28;20077;-73
2022/04/30 10:52:21;;;;;;;6.05;4.88;;;18.00;74.70;;;;;;5110354;28;20050;-72
2022/04/30 10:54:50;;;;;;;7.82;4.90;;;17.20;76.90;;;;;;5110344;28;20492;-72
2022/04/30 10:57:16;;;;;;;6.32;4.90;;;16.50;80.80;;;;;;5110226;28;20363;-72
2022/04/30 10:59:41;;;;;;;7.40;4.45;;;16.60;81.30;;;;;;5110440;28;20103;-72
2022/04/30 11:02:11;;;;;;;6.93;4.53;;;16.30;79.20;;;;;;5110337;28;20024;-72
2022/04/30 11:04:37;;;;;;;8.02;4.90;;;16.10;82.50;;;;;;5109213;28;20100;-72
2022/04/30 11:07:03;;;;;;;8.80;4.80;;;16.60;84.50;;;;;;5110126;28;20441;-73
2022/04/30 11:09:29;;;;;;;8.82;4.80;;;17.10;79.60;;;;;;5110334;28;20070;-72
2022/04/30 11:11:56;;;;;;;8.52;5.00;;;17.30;79.30;;;;;;5110082;28;20016;-72
2022/04/30 11:14:23;;;;;;;9.05;4.72;;;16.50;80.90;;;;;;5110139;28;20020;-71
2022/04/30 11:16:50;;;;;;;8.75;4.50;;;16.60;84.00;;;;;;5108499;28;20398;-73
2022/04/30 11:19:18;;;;;;;7.50;4.85;;;16.60;79.00;;;;;;5109893;28;20023;-72
2022/04/30 11:21:50;;;;;;;8.05;4.95;;;16.00;81.80;;;;;;5108483;28;20027;-72
2022/04/30 11:24:32;;;;;;;8.95;4.95;;;15.80;81.60;;;;;;5109819;28;20012;-72
2022/04/30 11:27:00;;;;;;;7.80;4.57;;;15.60;85.10;;;;;;5103892;28;20496;-72
2022/04/30 11:29:27;;;;;;;7.55;4.97;;;15.70;84.00;;;;;;5096170;28;20482;-72
2022/04/30 11:31:53;;;;;;;7.07;4.78;;;15.90;81.90;;;;;;5096115;28;20075;-72
2022/04/30 11:34:19;;;;;;;9.18;4.47;;;15.70;81.90;;;;;;5096045;28;20417;-72
2022/04/30 11:36:47;;;;;;;7.60;4.80;;;16.50;85.30;;;;;;5095949;28;20028;-73
2022/04/30 11:39:14;;;;;;;5.90;4.60;;;16.30;79.80;;;;;;5095902;28;20020;-73
2022/04/30 11:41:43;;;;;;;6.07;4.43;;;16.50;78.50;;;;;;5096178;28;20413;-73
2022/04/30 11:44:10;;;;;;;9.98;5.28;;;17.10;82.20;;;;;;5095831;28;20023;-73
2022/04/30 11:46:37;;;;;;;7.97;4.70;;;17.20;78.00;;;;;;5096098;28;20485;-73
2022/04/30 11:49:13;;;;;;;8.15;4.88;;;16.40;80.30;;;;;;5095762;28;20382;-72
2022/04/30 11:51:40;;;;;;;8.90;4.80;;;16.30;83.70;;;;;;5094440;28;20048;-73
2022/04/30 11:54:15;;;;;;;9.80;5.13;;;16.60;81.50;;;;;;5094339;28;20103;-73
2022/04/30 11:56:42;;;;;;;11.88;4.75;;;16.50;81.10;;;;;;5095558;28;20546;-73
2022/04/30 11:59:08;;;;;;;7.05;4.80;;;15.90;79.40;;;;;;5094393;28;20070;-72
2022/04/30 12:01:38;;;;;;;8.05;4.60;;;15.50;80.70;;;;;;5094271;28;20470;-73
2022/04/30 12:04:08;;;;;;;6.68;4.85;;;15.60;80.80;;;;;;5094611;28;20469;-73
2022/04/30 12:06:36;;;;;;;7.45;4.78;;;16.00;79.60;;;;;;5095639;28;20020;-73
2022/04/30 12:09:13;;;;;;;5.80;4.55;;;16.80;78.10;;;;;;5094114;28;20085;-73
2022/04/30 12:11:51;;;;;;;10.93;4.90;;;17.30;78.30;;;;;;5095353;28;20028;-73
2022/04/30 12:14:18;;;;;;;6.72;5.00;;;17.60;81.00;;;;;;5094401;28;20024;-73
2022/04/30 12:16:45;;;;;;;8.88;5.05;;;17.20;78.50;;;;;;5095024;28;20586;-73
2022/04/30 12:25:15;;;;;;;6.45;4.68;;;16.70;77.50;;;;;;5094873;28;20085;-73
2022/04/30 12:27:50;;;;;;;5.35;4.18;;;17.20;78.20;;;;;;5094995;28;20081;-73
2022/04/30 12:30:16;;;;;;;7.65;4.63;;;17.40;79.30;;;;;;5094937;28;20478;-73
2022/04/30 12:32:48;;;;;;;10.23;5.50;;;16.70;77.00;;;;;;5094884;28;20031;-72
2022/04/30 12:35:15;;;;;;;6.45;4.45;;;15.60;80.80;;;;;;5094694;28;20501;-73
2022/04/30 12:37:41;;;;;;;8.93;5.00;;;15.30;81.60;;;;;;5094715;28;20436;-72
2022/04/30 12:40:08;;;;;;;8.43;4.82;;;15.00;82.70;;;;;;5093886;28;20020;-73
2022/04/30 12:42:34;;;;;;;9.88;5.22;;;15.60;84.30;;;;;;5094741;28;20486;-73
2022/04/30 12:45:00;;;;;;;11.27;4.22;;;16.30;81.00;;;;;;5094952;28;20039;-73
2022/04/30 12:47:25;;;;;;;6.05;4.20;;;16.70;75.80;;;;;;5094729;28;20024;-72
2022/04/30 12:49:51;;;;;;;6.55;4.57;;;17.00;77.40;;;;;;5094681;28;20478;-73
2022/04/30 12:52:16;;;;;;;8.38;4.65;;;16.50;76.70;;;;;;5094549;28;20024;-73
2022/04/30 12:54:42;;;;;;;7.03;4.55;;;16.60;78.90;;;;;;5094432;28;20502;-72
2022/04/30 12:57:07;;;;;;;8.57;4.82;;;17.20;79.00;;;;;;5094447;28;20025;-73
2022/04/30 12:59:34;;;;;;;6.93;4.45;;;16.90;77.60;;;;;;5094412;28;20514;-72
2022/04/30 13:01:59;;;;;;;6.20;4.63;;;16.60;76.80;;;;;;5094376;28;20020;-72
2022/04/30 13:04:25;;;;;;;8.70;5.13;;;16.30;76.80;;;;;;5093006;28;20553;-72
2022/04/30 13:06:50;;;;;;;8.60;4.80;;;16.10;78.70;;;;;;5093413;28;20020;-72
2022/04/30 13:14:47;;;;;;;6.72;4.97;;;15.20;82.50;;;;;;5093737;28;20077;-72
2022/04/30 13:17:13;;;;;;;8.32;4.93;;;15.00;81.80;;;;;;5094052;28;20020;-72
2022/04/30 13:19:40;;;;;;;6.30;4.00;;;15.20;83.40;;;;;;5094071;28;20035;-72
2022/04/30 13:22:06;;;;;;;5.45;4.40;;;15.40;80.80;;;;;;5094014;28;20077;-72
2022/04/30 13:24:33;;;;;;;5.85;4.10;;;15.90;80.30;;;;;;5092610;28;20024;-72
2022/04/30 13:26:58;;;;;;;5.60;4.30;;;16.10;80.40;;;;;;5094189;28;20027;-72
2022/04/30 13:29:24;;;;;;;7.07;4.30;;;16.10;77.10;;;;;;5093867;28;20032;-72
2022/04/30 13:31:49;;;;;;;5.75;4.13;;;16.50;78.60;;;;;;5093887;28;20032;-72
2022/04/30 13:34:15;;;;;;;4.60;4.05;;;16.50;75.70;;;;;;5093788;28;20035;-72
2022/04/30 13:36:41;;;;;;;5.80;4.50;;;16.70;74.80;;;;;;5093702;28;20439;-73
2022/04/30 13:39:06;;;;;;;5.60;3.85;;;17.30;76.50;;;;;;5094274;28;20019;-73
2022/04/30 13:41:32;;;;;;;7.05;4.65;;;17.50;73.70;;;;;;5093682;28;20020;-73
2022/04/30 13:43:58;;;;;;;7.68;4.28;;;17.40;76.00;;;;;;5092407;28;20019;-73
2022/04/30 13:46:23;;;;;;;7.57;4.30;;;16.80;74.70;;;;;;5093765;28;20423;-73
2022/04/30 13:48:50;;;;;;;6.78;4.22;;;16.60;74.30;;;;;;5093728;28;20020;-73
2022/04/30 13:51:16;;;;;;;5.45;3.80;;;16.00;77.00;;;;;;5093301;28;20420;-72